createdAt,value
2019-04-28T00:01:31.051Z,76.17
2019-04-28T00:04:01.377Z,76.28
2019-04-28T00:06:31.557Z,75.33
2019-04-28T00:09:01.730Z,75.66
2019-04-28T00:11:31.695Z,76.18
2019-04-28T00:14:01.899Z,76.15
2019-04-28T00:16:31.304Z,75.94
2019-04-28T00:19:01.107Z,76.24
2019-04-28T00:21:33.896Z,75.69
2019-04-28T00:24:11.537Z,75.85
2019-04-28T00:26:42.250Z,76.21
2019-04-28T00:29:11.232Z,76.60
2019-04-28T00:31:41.397Z,76.49
2019-04-28T00:34:11.432Z,76.82
2019-04-28T00:36:41.234Z,77.16
2019-04-28T00:39:11.119Z,76.90
2019-04-28T00:41:41.949Z,76.76
2019-04-28T00:44:11.931Z,76.54
2019-04-28T00:46:42.114Z,76.58
2019-04-28T00:49:11.811Z,76.75
2019-04-28T00:51:53.894Z,75.86
2019-04-28T00:54:18.253Z,75.72
2019-04-28T00:56:46.697Z,76.50
2019-04-28T00:59:15.113Z,76.81
2019-04-28T01:01:47.653Z,76.30
2019-04-28T01:04:15.302Z,75.77
2019-04-28T01:06:43.673Z,75.09
2019-04-28T01:09:12.389Z,76.24
2019-04-28T01:11:43.283Z,76.68
2019-04-28T01:14:11.785Z,76.52
2019-04-28T01:16:41.858Z,75.70
2019-04-28T01:19:20.430Z,75.74
2019-04-28T01:22:10.242Z,76.63
2019-04-28T01:24:40.303Z,76.81
2019-04-28T01:27:15.927Z,76.16
2019-04-28T01:29:44.324Z,75.90
2019-04-28T01:32:23.428Z,75.65
2019-04-28T01:34:51.908Z,75.97
2019-04-28T01:37:20.354Z,76.65
2019-04-28T01:39:49.703Z,76.75
2019-04-28T01:42:18.083Z,77.17
2019-04-28T01:44:49.467Z,76.12
2019-04-28T01:47:17.978Z,76.68
2019-04-28T01:49:46.443Z,77.25
2019-04-28T01:52:20.550Z,76.55
2019-04-28T01:54:50.328Z,76.30
2019-04-28T01:57:21.314Z,76.26
2019-04-28T01:59:49.958Z,75.87
2019-04-28T02:02:19.942Z,75.94
2019-04-28T02:04:49.898Z,76.55
2019-04-28T02:07:20.445Z,76.10
2019-04-28T02:09:49.477Z,76.41
2019-04-28T02:12:17.986Z,76.40
2019-04-28T02:14:46.413Z,76.26
2019-04-28T02:17:15.789Z,76.97
2019-04-28T02:19:44.215Z,76.99
2019-04-28T02:22:16.740Z,76.85
2019-04-28T02:24:46.892Z,76.47
2019-04-28T02:27:15.654Z,76.23
2019-04-28T02:29:49.854Z,76.43
2019-04-28T02:32:23.829Z,76.90
2019-04-28T02:34:50.730Z,77.06
2019-04-28T02:37:20.531Z,77.15
2019-04-28T02:39:50.507Z,76.86
2019-04-28T02:42:20.920Z,76.97
2019-04-28T02:44:50.489Z,76.85
2019-04-28T02:47:21.907Z,77.09
2019-04-28T02:50:08.299Z,76.80
2019-04-28T02:52:53.707Z,76.49
2019-04-28T02:55:23.126Z,76.91
2019-04-28T02:57:51.913Z,77.33
2019-04-28T03:00:21.582Z,76.91
2019-04-28T03:02:51.343Z,76.99
2019-04-28T03:05:21.676Z,76.71
2019-04-28T03:07:51.547Z,76.70
2019-04-28T03:10:21.310Z,76.85
2019-04-28T03:12:51.736Z,77.10
2019-04-28T03:15:20.603Z,76.55
2019-04-28T03:17:50.554Z,76.79
2019-04-28T03:20:21.099Z,77.35
2019-04-28T03:22:51.272Z,77.04
2019-04-28T03:25:21.440Z,77.01
2019-04-28T03:27:57.222Z,77.47
2019-04-28T03:30:37.318Z,77.54
2019-04-28T03:33:17.076Z,76.71
2019-04-28T03:35:37.501Z,76.57
2019-04-28T03:38:07.795Z,76.79
2019-04-28T03:40:41.206Z,76.80
2019-04-28T03:43:14.842Z,76.68
2019-04-28T03:45:53.709Z,77.43
2019-04-28T03:48:22.132Z,76.20
2019-04-28T03:50:51.364Z,77.25
2019-04-28T03:53:20.705Z,77.09
2019-04-28T03:55:51.369Z,77.53
2019-04-28T03:58:23.597Z,76.63
2019-04-28T04:00:51.630Z,76.59
2019-04-28T04:03:20.932Z,77.78
2019-04-28T04:05:50.855Z,77.83
2019-04-28T04:08:21.023Z,77.42
2019-04-28T04:11:10.615Z,77.21
2019-04-28T04:13:44.966Z,78.40
2019-04-28T04:16:33.079Z,77.65
2019-04-28T04:19:03.140Z,77.84
2019-04-28T04:21:31.576Z,77.51
2019-04-28T04:24:01.069Z,77.41
2019-04-28T04:26:31.014Z,77.70
2019-04-28T04:29:04.385Z,77.78
2019-04-28T04:31:32.792Z,78.10
2019-04-28T04:34:03.353Z,77.97
2019-04-28T04:36:31.427Z,77.84
2019-04-28T04:39:01.737Z,77.85
2019-04-28T04:41:30.641Z,78.30
2019-04-28T04:44:01.087Z,78.24
2019-04-28T04:46:31.428Z,78.21
2019-04-28T04:49:00.736Z,78.00
2019-04-28T04:51:30.642Z,77.49
2019-04-28T04:54:01.105Z,77.87
2019-04-28T04:56:30.183Z,77.50
2019-04-28T04:59:00.387Z,77.81
2019-04-28T05:01:30.644Z,77.79
2019-04-28T05:04:13.648Z,77.20
2019-04-28T05:06:43.052Z,76.87
2019-04-28T05:09:11.614Z,77.48
2019-04-28T05:11:40.402Z,76.91
2019-04-28T05:14:11.530Z,77.52
2019-04-28T05:16:39.999Z,76.84
2019-04-28T05:19:10.046Z,77.05
2019-04-28T05:21:40.197Z,76.98
2019-04-28T05:24:19.991Z,77.37
2019-04-28T05:26:51.401Z,77.72
2019-04-28T05:29:26.449Z,77.74
2019-04-28T05:31:50.450Z,77.41
2019-04-28T05:34:20.531Z,77.46
2019-04-28T05:36:50.522Z,77.25
2019-04-28T05:39:21.634Z,77.24
2019-04-28T05:41:50.559Z,77.81
2019-04-28T05:44:22.895Z,77.82
2019-04-28T05:46:50.876Z,77.61
2019-04-28T05:49:33.216Z,77.68
2019-04-28T05:52:20.014Z,77.72
2019-04-28T05:55:12.508Z,77.22
2019-04-28T05:57:53.057Z,77.55
2019-04-28T06:00:31.808Z,77.90
2019-04-28T06:03:01.856Z,76.84
2019-04-28T06:05:31.876Z,77.74
2019-04-28T06:08:04.522Z,77.41
2019-04-28T06:10:32.930Z,76.85
2019-04-28T06:13:03.870Z,76.94
2019-04-28T06:15:32.304Z,77.07
2019-04-28T06:18:00.737Z,77.53
2019-04-28T06:20:30.353Z,77.68
2019-04-28T06:22:58.767Z,77.22
2019-04-28T06:25:27.973Z,77.68
2019-04-28T06:27:56.395Z,77.08
2019-04-28T06:30:24.819Z,77.24
2019-04-28T06:32:53.245Z,77.31
2019-04-28T06:35:21.713Z,76.77
2019-04-28T06:37:50.134Z,77.81
2019-04-28T06:40:18.600Z,77.25
2019-04-28T06:42:47.002Z,77.72
2019-04-28T06:45:15.455Z,77.89
2019-04-28T06:47:43.878Z,77.42
2019-04-28T06:50:12.650Z,77.43
2019-04-28T06:52:41.058Z,77.91
2019-04-28T06:55:09.627Z,77.38
2019-04-28T06:57:38.167Z,77.96
2019-04-28T07:00:08.305Z,77.53
2019-04-28T07:02:36.800Z,77.52
2019-04-28T07:05:06.641Z,77.37
2019-04-28T07:07:35.055Z,77.48
2019-04-28T07:10:04.517Z,77.42
2019-04-28T07:12:33.011Z,77.23
2019-04-28T07:15:01.450Z,77.68
2019-04-28T07:17:29.844Z,77.72
2019-04-28T07:19:59.880Z,77.66
2019-04-28T07:22:29.958Z,77.19
2019-04-28T07:24:58.399Z,77.41
2019-04-28T07:27:26.844Z,76.86
2019-04-28T07:29:55.258Z,77.39
2019-04-28T07:32:23.679Z,78.09
2019-04-28T07:34:52.101Z,78.06
2019-04-28T07:37:20.611Z,77.50
2019-04-28T07:39:49.009Z,77.24
2019-04-28T07:42:17.460Z,76.93
2019-04-28T07:44:46.029Z,76.75
2019-04-28T07:47:15.492Z,77.74
2019-04-28T07:49:43.994Z,77.17
2019-04-28T07:52:14.054Z,76.75
2019-04-28T07:54:42.987Z,77.08
2019-04-28T07:57:11.387Z,77.17
2019-04-28T07:59:39.949Z,77.07
2019-04-28T08:02:08.454Z,76.90
2019-04-28T08:04:37.777Z,76.74
2019-04-28T08:07:06.177Z,76.98
2019-04-28T08:09:34.600Z,77.44
2019-04-28T08:12:03.013Z,77.73
2019-04-28T08:14:31.424Z,77.01
2019-04-28T08:16:59.834Z,77.84
2019-04-28T08:19:28.242Z,77.49
2019-04-28T08:21:56.659Z,77.77
2019-04-28T08:24:25.060Z,77.72
2019-04-28T08:26:53.478Z,77.64
2019-04-28T08:29:21.861Z,77.53
2019-04-28T08:31:54.479Z,77.67
2019-04-28T08:34:23.478Z,78.36
2019-04-28T08:36:51.893Z,78.07
2019-04-28T08:39:23.425Z,77.47
2019-04-28T08:41:50.727Z,77.82
2019-04-28T08:44:19.152Z,77.90
2019-04-28T08:46:47.568Z,77.95
2019-04-28T08:49:16.009Z,77.18
2019-04-28T08:51:44.430Z,77.44
2019-04-28T08:54:12.833Z,78.19
2019-04-28T08:56:41.602Z,78.77
2019-04-28T08:59:10.019Z,78.38
2019-04-28T09:01:38.427Z,78.04
2019-04-28T09:04:15.204Z,77.75
2019-04-28T09:06:37.408Z,77.80
2019-04-28T09:09:08.035Z,77.83
2019-04-28T09:11:36.454Z,77.50
2019-04-28T09:14:04.869Z,77.50
2019-04-28T09:16:33.325Z,77.88
2019-04-28T09:19:02.250Z,77.65
2019-04-28T09:21:30.649Z,77.56
2019-04-28T09:24:00.152Z,76.87
2019-04-28T09:26:32.595Z,76.06
2019-04-28T09:29:01.010Z,76.25
2019-04-28T09:31:29.438Z,76.58
2019-04-28T09:33:57.843Z,76.11
2019-04-28T09:36:26.287Z,75.59
2019-04-28T09:38:55.068Z,76.52
2019-04-28T09:41:23.570Z,76.37
2019-04-28T09:43:53.596Z,76.33
2019-04-28T09:46:24.309Z,76.38
2019-04-28T09:48:52.736Z,75.97
2019-04-28T09:51:21.152Z,75.84
2019-04-28T09:53:49.579Z,76.36
2019-04-28T09:56:18.012Z,75.89
2019-04-28T09:58:46.424Z,75.26
2019-04-28T10:01:14.836Z,74.94
2019-04-28T10:03:43.258Z,74.44
2019-04-28T10:06:11.668Z,75.25
2019-04-28T10:08:40.177Z,75.28
2019-04-28T10:11:08.849Z,75.37
2019-04-28T10:13:37.256Z,74.46
2019-04-28T10:16:05.759Z,75.36
2019-04-28T10:18:34.166Z,75.11
2019-04-28T10:21:02.579Z,75.45
2019-04-28T10:23:33.554Z,74.45
2019-04-28T10:26:08.340Z,74.73
2019-04-28T10:28:37.779Z,75.02
2019-04-28T10:31:13.414Z,75.30
2019-04-28T10:33:43.437Z,75.36
2019-04-28T10:36:12.515Z,74.61
2019-04-28T10:38:42.553Z,74.43
2019-04-28T10:41:13.430Z,74.71
2019-04-28T10:43:41.849Z,74.49
2019-04-28T10:46:10.261Z,75.17
2019-04-28T10:48:38.689Z,74.20
2019-04-28T10:51:07.104Z,73.65
2019-04-28T10:53:35.509Z,73.75
2019-04-28T10:56:03.925Z,73.93
2019-04-28T10:58:32.340Z,72.78
2019-04-28T11:01:00.752Z,73.57
2019-04-28T11:03:29.152Z,74.24
2019-04-28T11:05:59.693Z,73.48
2019-04-28T11:08:29.832Z,73.28
2019-04-28T11:11:00.249Z,71.30
2019-04-28T11:13:28.926Z,71.27
2019-04-28T11:15:57.341Z,71.69
2019-04-28T11:18:25.840Z,72.56
2019-04-28T11:20:57.446Z,70.21
2019-04-28T11:23:25.846Z,72.17
2019-04-28T11:25:54.852Z,71.33
2019-04-28T11:28:23.276Z,71.35
2019-04-28T11:30:51.662Z,71.73
2019-04-28T11:33:21.789Z,70.89
2019-04-28T11:35:51.153Z,70.70
2019-04-28T11:38:19.610Z,72.19
2019-04-28T11:40:47.990Z,71.06
2019-04-28T11:43:16.395Z,72.69
2019-04-28T11:45:45.748Z,70.77
2019-04-28T11:48:15.097Z,68.49
2019-04-28T11:50:44.295Z,70.12
2019-04-28T11:53:15.519Z,68.62
2019-04-28T11:55:43.929Z,67.51
2019-04-28T11:58:12.334Z,68.43
2019-04-28T12:00:42.012Z,70.26
2019-04-28T12:03:10.496Z,69.88
2019-04-28T12:05:41.012Z,66.24
2019-04-28T12:08:09.588Z,69.94
2019-04-28T12:10:55.093Z,68.25
2019-04-28T12:13:25.182Z,68.06
2019-04-28T12:16:05.153Z,64.93
2019-04-28T12:18:35.243Z,65.58
2019-04-28T12:21:04.359Z,64.26
2019-04-28T12:23:32.913Z,65.79
2019-04-28T12:26:01.364Z,67.08
2019-04-28T12:28:30.287Z,64.69
2019-04-28T12:30:59.742Z,64.26
2019-04-28T12:33:28.768Z,64.87
2019-04-28T12:35:57.164Z,65.52
2019-04-28T12:38:25.588Z,60.47
2019-04-28T12:40:55.865Z,62.53
2019-04-28T12:43:24.188Z,61.19
2019-04-28T12:45:52.618Z,64.64
2019-04-28T12:48:21.051Z,62.40
2019-04-28T12:50:51.144Z,62.83
2019-04-28T12:53:19.594Z,61.84
2019-04-28T12:55:47.980Z,65.20
2019-04-28T12:58:19.065Z,63.48
2019-04-28T13:00:55.309Z,65.55
2019-04-28T13:03:25.374Z,64.86
2019-04-28T13:06:02.604Z,64.04
2019-04-28T13:08:25.583Z,64.24
2019-04-28T13:10:56.656Z,64.65
2019-04-28T13:13:25.065Z,64.64
2019-04-28T13:15:53.478Z,65.52
2019-04-28T13:18:22.964Z,64.33
2019-04-28T13:20:51.443Z,64.49
2019-04-28T13:23:19.882Z,67.25
2019-04-28T13:25:48.249Z,67.57
2019-04-28T13:28:16.678Z,65.06
2019-04-28T13:30:45.084Z,65.08
2019-04-28T13:33:14.599Z,65.06
2019-04-28T13:35:43.049Z,63.67
2019-04-28T13:38:11.413Z,65.52
2019-04-28T13:40:41.906Z,62.41
2019-04-28T13:43:12.625Z,64.52
2019-04-28T13:45:41.025Z,64.48
2019-04-28T13:48:09.439Z,63.90
2019-04-28T13:50:43.619Z,65.17
2019-04-28T13:53:11.968Z,66.93
2019-04-28T13:55:43.319Z,64.33
2019-04-28T13:58:17.864Z,64.15
2019-04-28T14:01:04.002Z,62.79
2019-04-28T14:03:44.415Z,63.96
2019-04-28T14:06:27.195Z,64.48
2019-04-28T14:08:48.298Z,64.23
2019-04-28T14:11:19.634Z,64.61
2019-04-28T14:13:49.097Z,62.78
2019-04-28T14:16:20.231Z,63.41
2019-04-28T14:18:51.385Z,62.46
2019-04-28T14:21:20.539Z,61.70
2019-04-28T14:23:51.317Z,62.30
2019-04-28T14:26:19.675Z,60.18
2019-04-28T14:28:48.079Z,64.68
2019-04-28T14:31:16.528Z,62.50
2019-04-28T14:33:45.978Z,62.78
2019-04-28T14:36:16.476Z,63.57
2019-04-28T14:38:44.599Z,62.21
2019-04-28T14:41:13.075Z,61.38
2019-04-28T14:43:41.803Z,59.98
2019-04-28T14:46:11.066Z,60.19
2019-04-28T14:48:39.431Z,61.41
2019-04-28T14:51:07.892Z,63.05
2019-04-28T14:53:36.296Z,62.15
2019-04-28T14:56:07.325Z,60.69
2019-04-28T14:58:35.146Z,62.64
2019-04-28T15:01:27.450Z,63.44
2019-04-28T15:04:00.169Z,62.64
2019-04-28T15:06:33.254Z,63.78
2019-04-28T15:09:07.311Z,62.84
2019-04-28T15:11:38.402Z,63.42
2019-04-28T15:14:06.855Z,61.81
2019-04-28T15:16:35.271Z,63.34
2019-04-28T15:19:03.907Z,64.68
2019-04-28T15:21:37.492Z,64.83
2019-04-28T15:24:08.314Z,61.83
2019-04-28T15:26:36.781Z,63.83
2019-04-28T15:29:05.267Z,62.44
2019-04-28T15:31:33.688Z,62.39
2019-04-28T15:34:06.041Z,62.33
2019-04-28T15:36:36.942Z,65.16
2019-04-28T15:39:11.763Z,62.07
2019-04-28T15:41:40.200Z,62.50
2019-04-28T15:44:08.748Z,61.96
2019-04-28T15:46:38.100Z,63.10
2019-04-28T15:49:06.541Z,61.08
2019-04-28T15:51:34.940Z,63.42
2019-04-28T15:54:03.346Z,61.82
2019-04-28T15:56:37.521Z,64.02
2019-04-28T15:59:07.734Z,63.39
2019-04-28T16:01:38.816Z,63.32
2019-04-28T16:04:08.828Z,64.38
2019-04-28T16:06:37.725Z,63.74
2019-04-28T16:09:09.513Z,64.19
2019-04-28T16:11:39.259Z,64.27
2019-04-28T16:14:14.955Z,63.55
2019-04-28T16:16:43.354Z,64.10
2019-04-28T16:19:11.819Z,61.97
2019-04-28T16:21:40.305Z,63.87
2019-04-28T16:24:12.590Z,63.64
2019-04-28T16:26:43.122Z,63.04
2019-04-28T16:29:11.533Z,62.67
2019-04-28T16:31:39.927Z,61.63
2019-04-28T16:34:10.482Z,62.09
2019-04-28T16:36:38.903Z,60.81
2019-04-28T16:39:08.055Z,62.28
2019-04-28T16:41:40.384Z,62.40
2019-04-28T16:44:13.151Z,61.40
2019-04-28T16:46:42.511Z,63.30
2019-04-28T16:49:10.911Z,63.00
2019-04-28T16:51:39.337Z,63.55
2019-04-28T16:54:07.741Z,62.99
2019-04-28T16:56:43.789Z,64.39
2019-04-28T16:59:30.311Z,63.42
2019-04-28T17:02:03.627Z,64.74
2019-04-28T17:04:37.685Z,65.10
2019-04-28T17:07:04.905Z,66.09
2019-04-28T17:09:33.330Z,66.31
2019-04-28T17:12:01.734Z,65.49
2019-04-28T17:14:30.130Z,66.16
2019-04-28T17:16:59.102Z,65.68
2019-04-28T17:19:27.665Z,67.00
2019-04-28T17:21:56.102Z,66.20
2019-04-28T17:24:24.531Z,66.97
2019-04-28T17:26:52.930Z,66.31
2019-04-28T17:29:21.331Z,66.85
2019-04-28T17:31:49.760Z,66.85
2019-04-28T17:34:21.645Z,66.52
2019-04-28T17:36:50.155Z,68.03
2019-04-28T17:39:28.542Z,67.90
2019-04-28T17:41:54.635Z,68.80
2019-04-28T17:44:23.180Z,68.52
2019-04-28T17:46:51.574Z,68.65
2019-04-28T17:49:21.617Z,68.18
2019-04-28T17:51:54.014Z,68.28
2019-04-28T17:54:22.405Z,68.72
2019-04-28T17:56:50.833Z,68.84
2019-04-28T17:59:19.276Z,68.25
2019-04-28T18:01:50.261Z,67.50
2019-04-28T18:04:35.511Z,68.93
2019-04-28T18:07:15.492Z,68.55
2019-04-28T18:09:48.334Z,68.77
2019-04-28T18:12:16.754Z,68.30
2019-04-28T18:14:46.930Z,69.27
2019-04-28T18:17:28.937Z,68.85
2019-04-28T18:20:01.704Z,67.89
2019-04-28T18:22:30.138Z,68.26
2019-04-28T18:24:58.528Z,67.94
2019-04-28T18:27:26.943Z,68.34
2019-04-28T18:29:56.366Z,68.33
2019-04-28T18:32:26.455Z,68.97
2019-04-28T18:35:11.842Z,68.65
2019-04-28T18:37:41.942Z,68.89
2019-04-28T18:40:30.866Z,69.83
2019-04-28T18:43:21.837Z,70.59
2019-04-28T18:45:50.250Z,71.60
2019-04-28T18:48:18.684Z,70.36
2019-04-28T18:50:47.091Z,70.30
2019-04-28T18:53:15.517Z,70.38
2019-04-28T18:55:43.956Z,70.63
2019-04-28T18:58:12.356Z,71.35
2019-04-28T19:00:42.749Z,71.18
2019-04-28T19:03:11.168Z,71.73
2019-04-28T19:05:45.878Z,71.98
2019-04-28T19:08:18.568Z,72.97
2019-04-28T19:10:51.411Z,73.07
2019-04-28T19:13:21.471Z,73.06
2019-04-28T19:16:12.675Z,73.31
2019-04-28T19:18:44.291Z,73.55
2019-04-28T19:21:17.407Z,73.22
2019-04-28T19:23:45.845Z,74.60
2019-04-28T19:26:14.262Z,74.51
2019-04-28T19:28:42.664Z,74.92
2019-04-28T19:31:11.061Z,74.82
2019-04-28T19:33:40.484Z,74.77
2019-04-28T19:36:10.345Z,74.86
2019-04-28T19:38:38.735Z,75.29
2019-04-28T19:41:07.166Z,75.55
2019-04-28T19:43:39.201Z,75.33
2019-04-28T19:46:09.304Z,76.01
2019-04-28T19:48:38.741Z,75.64
2019-04-28T19:51:07.179Z,76.42
2019-04-28T19:53:39.448Z,76.40
2019-04-28T19:56:18.286Z,75.80
2019-04-28T19:58:52.125Z,75.31
2019-04-28T20:01:25.599Z,75.05
2019-04-28T20:03:54.629Z,75.36
2019-04-28T20:06:23.028Z,75.59
2019-04-28T20:08:51.456Z,75.16
2019-04-28T20:11:21.982Z,75.39
2019-04-28T20:13:50.419Z,75.15
2019-04-28T20:16:18.827Z,75.34
2019-04-28T20:18:49.005Z,75.55
2019-04-28T20:21:19.723Z,76.01
2019-04-28T20:23:48.116Z,76.19
2019-04-28T20:26:20.367Z,75.57
2019-04-28T20:28:48.827Z,75.18
2019-04-28T20:31:17.258Z,76.09
2019-04-28T20:33:46.764Z,77.04
2019-04-28T20:36:25.822Z,76.78
2019-04-28T20:38:55.865Z,75.61
2019-04-28T20:41:30.266Z,75.25
2019-04-28T20:43:59.228Z,75.69
2019-04-28T20:46:27.687Z,75.85
2019-04-28T20:48:56.112Z,76.23
2019-04-28T20:51:26.566Z,76.51
2019-04-28T20:53:54.968Z,75.91
2019-04-28T20:56:26.132Z,74.99
2019-04-28T20:58:54.624Z,74.89
2019-04-28T21:01:25.760Z,75.31
2019-04-28T21:03:54.189Z,75.64
2019-04-28T21:06:26.373Z,75.66
2019-04-28T21:08:58.865Z,75.90
2019-04-28T21:11:26.540Z,76.16
2019-04-28T21:13:57.441Z,76.81
2019-04-28T21:16:25.934Z,76.62
2019-04-28T21:18:58.092Z,76.48
2019-04-28T21:21:28.849Z,76.65
2019-04-28T21:23:57.272Z,76.98
2019-04-28T21:26:25.667Z,77.18
2019-04-28T21:28:54.062Z,77.23
2019-04-28T21:31:22.490Z,77.49
2019-04-28T21:33:50.901Z,77.51
2019-04-28T21:36:19.305Z,77.09
2019-04-28T21:38:49.359Z,76.65
2019-04-28T21:41:17.754Z,77.07
2019-04-28T21:43:47.820Z,77.46
2019-04-28T21:46:23.734Z,77.76
2019-04-28T21:48:53.798Z,77.87
2019-04-28T21:51:24.312Z,77.31
2019-04-28T21:53:52.724Z,77.19
2019-04-28T21:56:26.054Z,77.42
2019-04-28T21:58:57.488Z,77.36
2019-04-28T22:01:26.127Z,78.10
2019-04-28T22:03:57.125Z,78.11
2019-04-28T22:06:25.517Z,78.31
2019-04-28T22:08:56.494Z,78.50
2019-04-28T22:11:24.898Z,78.72
2019-04-28T22:13:54.448Z,78.62
2019-04-28T22:16:23.956Z,78.71
2019-04-28T22:18:52.358Z,79.34
2019-04-28T22:21:21.874Z,79.10
2019-04-28T22:23:52.008Z,78.82
2019-04-28T22:26:43.407Z,78.47
2019-04-28T22:29:17.291Z,78.44
2019-04-28T22:31:46.666Z,79.19
2019-04-28T22:34:19.577Z,79.02
2019-04-28T22:36:49.435Z,79.06
2019-04-28T22:39:17.849Z,79.15
2019-04-28T22:41:46.273Z,78.74
2019-04-28T22:44:14.763Z,78.68
2019-04-28T22:46:43.198Z,78.92
2019-04-28T22:49:11.751Z,78.82
2019-04-28T22:51:40.158Z,79.18
2019-04-28T22:54:10.212Z,79.11
2019-04-28T22:56:43.238Z,79.23
2019-04-28T22:59:16.108Z,78.72
2019-04-28T23:01:51.289Z,78.88
2019-04-28T23:04:38.468Z,78.84
2019-04-28T23:07:09.867Z,79.68
2019-04-28T23:09:44.844Z,79.33
2019-04-28T23:12:13.120Z,78.95
2019-04-28T23:14:44.985Z,78.97
2019-04-28T23:17:15.083Z,79.23
2019-04-28T23:19:45.161Z,78.57
2019-04-28T23:22:25.826Z,78.02
2019-04-28T23:24:56.793Z,77.84
2019-04-28T23:27:26.245Z,78.64
2019-04-28T23:29:58.733Z,78.43
2019-04-28T23:32:26.430Z,78.58
2019-04-28T23:34:54.784Z,78.05
2019-04-28T23:37:29.741Z,78.15
2019-04-28T23:40:02.470Z,79.04
2019-04-28T23:42:35.060Z,78.47
2019-04-28T23:45:02.711Z,78.41
2019-04-28T23:47:31.088Z,78.51
2019-04-28T23:49:59.506Z,78.60
2019-04-28T23:52:48.747Z,78.48
2019-04-28T23:55:19.901Z,78.70
2019-04-28T23:57:48.332Z,79.77
